Time;durP1;ratioP1;P1;durP2;ratioP2;P2;SDS_P1;SDS_P2;PMS_P1;PMS_P2;Temp;Humidity;BMP_temperature;BMP_pressure;BME280_temperature;BME280_humidity;BME280_pressure;Samples;Min_cycle;Max_cycle;Signal;HPM_P1;HPM_P2
2023/07/22 00:01:12;;;;;;;;;4.00;3.33;;;;;21.05;62.30;101355.13;5035716;28;45434;-84
2023/07/22 00:03:38;;;;;;;;;3.00;3.00;;;;;21.05;62.21;101352.44;5033462;28;60849;-84
2023/07/22 00:06:08;;;;;;;;;3.00;3.00;;;;;21.01;62.24;101354.31;5039605;28;45359;-83
2023/07/22 00:08:34;;;;;;;;;5.00;4.00;;;;;21.00;62.62;101357.06;5039471;28;47356;-84
2023/07/22 00:10:59;;;;;;;;;4.67;3.00;;;;;20.95;62.74;101356.28;5038465;28;45514;-83
2023/07/22 00:13:28;;;;;;;;;6.00;5.00;;;;;20.92;62.81;101359.91;5028243;28;45170;-86
2023/07/22 00:15:54;;;;;;;;;4.33;4.33;;;;;20.88;63.38;101344.81;5024440;28;45374;-84
2023/07/22 00:18:20;;;;;;;;;4.00;4.00;;;;;20.85;63.15;101356.47;5038625;28;45986;-84
2023/07/22 00:20:45;;;;;;;;;4.00;4.00;;;;;20.84;63.28;101354.72;5036953;28;65400;-84
2023/07/22 00:23:10;;;;;;;;;3.00;3.00;;;;;20.80;63.79;101346.75;5036768;28;63720;-84
2023/07/22 00:25:36;;;;;;;;;4.00;4.00;;;;;20.78;63.44;101346.81;5038617;28;58387;-84
2023/07/22 00:28:01;;;;;;;;;6.67;5.00;;;;;20.76;63.37;101347.75;5038873;28;46795;-84
2023/07/22 00:30:28;;;;;;;;;4.67;2.00;;;;;20.70;63.78;101346.09;5033643;28;60965;-84
2023/07/22 00:32:53;;;;;;;;;4.00;4.00;;;;;20.68;63.93;101342.56;5036720;28;45333;-84
2023/07/22 00:35:18;;;;;;;;;3.00;3.00;;;;;20.62;64.25;101346.28;5036094;28;45445;-85
2023/07/22 00:37:44;;;;;;;;;6.00;4.00;;;;;20.61;64.53;101344.50;5038393;28;60992;-86
2023/07/22 00:40:11;;;;;;;;;4.67;3.33;;;;;20.55;64.53;101344.63;5037429;28;62067;-84
2023/07/22 00:42:37;;;;;;;;;4.67;4.00;;;;;20.54;64.44;101336.63;5038723;28;45379;-84
2023/07/22 00:45:03;;;;;;;;;6.67;3.00;;;;;20.47;64.93;101335.00;5034999;28;45542;-83
2023/07/22 00:47:28;;;;;;;;;7.00;4.00;;;;;20.46;65.72;101334.13;5030243;28;47698;-83
2023/07/22 00:49:54;;;;;;;;;3.00;3.00;;;;;20.44;65.48;101345.75;5037060;28;45421;-86
2023/07/22 00:52:19;;;;;;;;;5.33;4.00;;;;;20.40;65.60;101340.47;5038750;28;46048;-84
2023/07/22 00:54:45;;;;;;;;;5.00;4.00;;;;;20.35;65.60;101326.28;5038853;28;45443;-85
2023/07/22 00:57:11;;;;;;;;;7.67;4.00;;;;;20.35;65.98;101338.81;5020854;28;47433;-83
2023/07/22 00:59:38;;;;;;;;;5.00;4.00;;;;;20.32;65.79;101339.72;5036909;28;45455;-84
2023/07/22 01:02:03;;;;;;;;;3.67;1.67;;;;;20.25;66.24;101331.84;5037114;28;45576;-83
2023/07/22 01:04:29;;;;;;;;;6.00;4.00;;;;;20.26;65.94;101333.63;5035288;28;45143;-84
2023/07/22 01:06:54;;;;;;;;;5.00;4.00;;;;;20.24;66.49;101335.44;5031261;28;45774;-83
2023/07/22 01:09:20;;;;;;;;;4.33;4.33;;;;;20.22;66.91;101342.63;5030730;28;45227;-83
2023/07/22 01:11:45;;;;;;;;;5.00;5.00;;;;;20.18;66.53;101328.41;5037989;28;62002;-83
2023/07/22 01:14:10;;;;;;;;;3.33;3.33;;;;;20.12;66.95;101320.50;5037296;28;45569;-83
2023/07/22 01:16:36;;;;;;;;;3.33;3.00;;;;;20.11;67.83;101332.13;5037235;28;66280;-85
2023/07/22 01:19:01;;;;;;;;;3.67;3.67;;;;;20.09;67.63;101324.13;5037173;28;65716;-84
2023/07/22 01:21:27;;;;;;;;;5.67;4.67;;;;;20.05;67.73;101324.22;5036972;28;45689;-84
2023/07/22 01:23:53;;;;;;;;;4.00;4.00;;;;;20.03;68.30;101326.94;5032022;28;45345;-85
2023/07/22 01:26:19;;;;;;;;;5.00;1.67;;;;;20.01;68.34;101320.72;5037923;28;59026;-83
2023/07/22 01:28:45;;;;;;;;;3.33;3.33;;;;;19.99;68.23;101317.19;5037603;28;48804;-83
2023/07/22 01:31:10;;;;;;;;;7.00;5.33;;;;;19.97;69.00;101323.47;5038195;28;45347;-84
2023/07/22 01:33:35;;;;;;;;;4.67;4.67;;;;;19.94;69.47;101321.75;5035935;28;57126;-85
2023/07/22 01:36:01;;;;;;;;;5.00;5.00;;;;;19.90;69.31;101317.34;5037668;28;70580;-84
2023/07/22 01:38:27;;;;;;;;;5.67;5.67;;;;;19.89;69.66;101311.13;5017050;28;46315;-85
2023/07/22 01:40:52;;;;;;;;;4.00;4.00;;;;;19.85;69.87;101309.41;5033832;28;45612;-82
2023/07/22 01:43:17;;;;;;;;;5.00;4.33;;;;;19.84;70.08;101318.38;5032936;28;45595;-85
2023/07/22 01:45:43;;;;;;;;;6.67;4.00;;;;;19.82;70.67;101312.16;5036652;28;65257;-84
2023/07/22 01:48:08;;;;;;;;;6.33;5.00;;;;;19.82;71.18;101312.16;5037329;28;60513;-83
2023/07/22 01:50:34;;;;;;;;;3.67;3.67;;;;;19.79;70.49;101308.66;5038436;28;45197;-83
2023/07/22 01:52:59;;;;;;;;;6.00;4.67;;;;;19.77;71.21;101313.16;5036020;28;51608;-85
2023/07/22 01:55:24;;;;;;;;;6.67;5.67;;;;;19.73;71.51;101314.13;5037717;28;50669;-84
2023/07/22 01:57:50;;;;;;;;;5.33;5.33;;;;;19.71;71.44;101308.81;5035317;28;59220;-84
2023/07/22 02:00:15;;;;;;;;;3.33;3.33;;;;;19.70;71.88;101315.06;5036778;28;45505;-83
2023/07/22 02:02:43;;;;;;;;;4.33;4.33;;;;;19.66;72.20;101312.50;5037037;28;45182;-83
2023/07/22 02:05:10;;;;;;;;;5.33;5.33;;;;;19.61;71.89;101310.78;5037942;28;49131;-86
2023/07/22 02:07:35;;;;;;;;;7.00;5.00;;;;;19.59;72.57;101309.03;5036953;28;45481;-83
2023/07/22 02:10:01;;;;;;;;;3.67;3.67;;;;;19.56;72.86;101304.59;5036995;28;45811;-85
2023/07/22 02:12:26;;;;;;;;;5.00;4.33;;;;;19.54;72.62;101314.44;5037622;28;51450;-83
2023/07/22 02:14:51;;;;;;;;;4.67;3.67;;;;;19.52;73.48;101310.03;5035893;28;46830;-84
2023/07/22 02:17:17;;;;;;;;;4.00;4.00;;;;;19.51;73.80;101313.63;5037124;28;52741;-84
2023/07/22 02:19:43;;;;;;;;;4.67;4.67;;;;;19.52;73.75;101315.38;5036283;28;61745;-83
2023/07/22 02:22:09;;;;;;;;;9.00;5.67;;;;;19.50;74.23;101314.53;5036201;28;45520;-83
2023/07/22 02:24:34;;;;;;;;;4.67;4.00;;;;;19.48;74.36;101309.19;5035582;28;45289;-83
2023/07/22 02:26:59;;;;;;;;;6.33;5.33;;;;;19.45;74.64;101303.91;5019073;28;45492;-83
2023/07/22 02:29:25;;;;;;;;;8.33;5.00;;;;;19.43;75.40;101311.06;5037577;28;46333;-83
2023/07/22 02:31:50;;;;;;;;;6.00;5.33;;;;;19.43;75.53;101315.53;5036535;28;58816;-84
2023/07/22 02:34:16;;;;;;;;;6.67;4.67;;;;;19.40;75.59;101310.25;5036088;28;45610;-84
2023/07/22 02:36:41;;;;;;;;;5.67;5.67;;;;;19.36;76.26;101310.28;5035287;28;45521;-83
2023/07/22 02:39:09;;;;;;;;;6.00;6.00;;;;;19.32;76.27;101300.53;5036514;28;62287;-84
2023/07/22 02:41:36;;;;;;;;;6.00;6.00;;;;;19.31;76.73;101311.28;5035882;28;45322;-83
2023/07/22 02:44:03;;;;;;;;;5.00;5.00;;;;;19.31;76.57;101301.47;5035344;28;45237;-83
2023/07/22 02:46:28;;;;;;;;;6.00;6.00;;;;;19.30;76.51;101315.75;5037295;28;45362;-85
2023/07/22 02:48:54;;;;;;;;;6.33;4.67;;;;;19.28;76.95;101314.00;5023264;28;67110;-84
2023/07/22 02:51:20;;;;;;;;;6.33;5.33;;;;;19.25;77.63;101314.06;5037400;28;45356;-83
2023/07/22 02:53:46;;;;;;;;;6.00;6.00;;;;;19.23;77.84;101318.56;5035900;28;45986;-84
2023/07/22 02:56:12;;;;;;;;;8.00;7.00;;;;;19.19;77.94;101312.38;5036409;28;45330;-83
2023/07/22 02:58:38;;;;;;;;;7.33;6.33;;;;;19.17;77.83;101305.28;5036088;28;45359;-83
2023/07/22 03:01:08;;;;;;;;;6.00;6.00;;;;;19.15;78.14;101310.66;5035232;28;45542;-85
2023/07/22 03:03:34;;;;;;;;;9.00;7.67;;;;;19.14;78.48;101314.25;5033715;28;45550;-84
2023/07/22 03:06:00;;;;;;;;;10.00;7.00;;;;;19.14;78.91;101318.72;5035336;28;45197;-83
2023/07/22 03:08:26;;;;;;;;;8.67;7.33;;;;;19.11;79.50;101316.97;5036915;28;45361;-85
2023/07/22 03:10:51;;;;;;;;;10.00;8.00;;;;;19.10;79.86;101317.88;5036944;28;45356;-83
2023/07/22 03:13:17;;;;;;;;;8.67;7.67;;;;;19.08;80.03;101319.72;5036706;28;45578;-83
2023/07/22 03:15:42;;;;;;;;;6.67;5.33;;;;;19.07;80.39;101318.84;5030942;28;45292;-83
2023/07/22 03:18:09;;;;;;;;;7.00;5.33;;;;;19.05;80.90;101320.63;5034785;28;45322;-83
2023/07/22 03:20:38;;;;;;;;;10.00;8.67;;;;;19.02;81.20;101315.34;5033274;28;45438;-83
2023/07/22 03:23:04;;;;;;;;;6.67;6.00;;;;;19.00;81.66;101319.81;5034853;28;46580;-83
2023/07/22 03:25:30;;;;;;;;;8.67;7.00;;;;;18.99;81.83;101317.19;5036517;28;45343;-83
2023/07/22 03:27:56;;;;;;;;;7.33;6.00;;;;;18.98;82.22;101315.41;5036345;28;45482;-83
2023/07/22 03:30:22;;;;;;;;;8.67;7.33;;;;;18.92;82.61;101316.41;5035321;28;45590;-83
2023/07/22 03:32:50;;;;;;;;;7.00;7.00;;;;;18.95;82.41;101331.50;5036428;28;46251;-83
2023/07/22 03:35:15;;;;;;;;;6.67;6.67;;;;;18.93;82.99;101328.88;5032609;28;45351;-83
2023/07/22 03:37:41;;;;;;;;;3.33;2.00;;;;;18.92;82.97;101329.78;5017777;28;45395;-83
2023/07/22 03:40:20;;;;;;;;;7.67;7.67;;;;;18.88;82.99;101324.50;5034604;28;45464;-84
2023/07/22 03:42:52;;;;;;;;;6.00;6.00;;;;;18.88;83.32;101324.50;5019456;28;48827;-84
2023/07/22 03:45:18;;;;;;;;;9.00;6.33;;;;;18.90;83.19;101336.94;5034972;28;45480;-84
2023/07/22 03:47:45;;;;;;;;;8.33;7.67;;;;;18.88;83.44;101321.81;5034904;28;45218;-85
2023/07/22 03:50:10;;;;;;;;;8.00;8.00;;;;;18.87;84.28;101330.75;5018578;28;45633;-83
2023/07/22 03:52:36;;;;;;;;;8.67;6.00;;;;;18.87;84.42;101333.44;5035461;28;62906;-84
2023/07/22 03:55:01;;;;;;;;;9.67;8.00;;;;;18.86;84.76;101332.56;5036012;28;45326;-83
2023/07/22 03:57:27;;;;;;;;;9.00;9.00;;;;;18.83;84.71;101329.91;5034655;28;45604;-83
2023/07/22 03:59:56;;;;;;;;;6.33;6.00;;;;;18.80;84.46;101322.81;5034926;28;45300;-83
2023/07/22 04:02:21;;;;;;;;;9.00;8.00;;;;;18.79;84.61;101329.06;5032246;28;72549;-84
2023/07/22 04:04:47;;;;;;;;;8.33;6.67;;;;;18.75;84.53;101321.09;5036016;28;45316;-83
2023/07/22 04:07:12;;;;;;;;;10.00;8.00;;;;;18.77;84.22;101332.69;5034783;28;45680;-83
2023/07/22 04:09:38;;;;;;;;;11.67;7.33;;;;;18.74;84.82;101322.91;5034940;28;62148;-84
2023/07/22 04:12:04;;;;;;;;;8.67;7.00;;;;;18.73;84.46;101325.59;5034820;28;46852;-83
2023/07/22 04:14:29;;;;;;;;;8.00;8.00;;;;;18.71;84.44;101328.31;5027483;28;45320;-84
2023/07/22 04:16:54;;;;;;;;;6.00;5.33;;;;;18.70;83.93;101318.53;5034429;28;45270;-83
2023/07/22 04:19:20;;;;;;;;;9.00;7.67;;;;;18.65;84.50;101323.03;5034818;28;59409;-83
2023/07/22 04:21:45;;;;;;;;;8.00;8.00;;;;;18.66;84.54;101321.22;5034770;28;46809;-86
2023/07/22 04:24:11;;;;;;;;;6.00;6.00;;;;;18.68;84.20;101323.00;5034632;28;46195;-85
2023/07/22 04:26:36;;;;;;;;;12.00;8.33;;;;;18.67;84.45;101331.91;5034005;28;52294;-85
2023/07/22 04:29:02;;;;;;;;;9.00;9.00;;;;;18.66;84.29;101323.91;5034000;28;56649;-84
2023/07/22 04:31:27;;;;;;;;;15.33;9.67;;;;;18.66;84.06;101327.44;5033921;28;46716;-84
2023/07/22 04:33:53;;;;;;;;;6.33;6.33;;;;;18.65;84.46;101327.47;5035413;28;45305;-84
2023/07/22 04:36:18;;;;;;;;;12.00;9.00;;;;;18.65;84.75;101324.81;5035661;28;45359;-83
2023/07/22 04:38:43;;;;;;;;;15.00;10.33;;;;;18.66;84.45;101332.81;5034966;28;59370;-83
2023/07/22 04:41:09;;;;;;;;;10.67;9.00;;;;;18.65;85.11;101333.72;5035509;28;47709;-84
2023/07/22 04:43:35;;;;;;;;;9.33;8.00;;;;;18.64;84.91;101331.03;5035425;28;45482;-83
2023/07/22 04:46:00;;;;;;;;;7.67;6.00;;;;;18.65;85.12;101332.84;5034996;28;54835;-83
2023/07/22 04:48:26;;;;;;;;;8.67;8.67;;;;;18.65;85.20;101341.75;5035640;28;45241;-84
2023/07/22 04:50:51;;;;;;;;;9.00;9.00;;;;;18.66;85.24;101340.84;5037282;28;46466;-83
2023/07/22 04:53:17;;;;;;;;;11.67;8.67;;;;;18.66;85.14;101343.50;5037991;28;45215;-84
2023/07/22 04:55:43;;;;;;;;;10.00;7.33;;;;;18.64;85.58;101342.63;5035503;28;45438;-85
2023/07/22 04:58:10;;;;;;;;;6.33;6.33;;;;;18.64;85.62;101339.94;5033477;28;45568;-84
2023/07/22 05:00:37;;;;;;;;;10.00;6.33;;;;;18.70;85.15;101344.38;5038379;28;47694;-85
2023/07/22 05:03:02;;;;;;;;;9.00;7.67;;;;;18.70;85.28;101339.03;5026739;28;45520;-83
2023/07/22 05:05:28;;;;;;;;;9.00;7.00;;;;;18.68;85.40;101335.47;5039047;28;45213;-85
2023/07/22 05:07:53;;;;;;;;;8.33;8.00;;;;;18.70;85.74;101337.25;5034428;28;45397;-83
2023/07/22 05:10:19;;;;;;;;;10.00;9.00;;;;;18.72;85.59;101339.88;5037090;28;59204;-83
2023/07/22 05:12:44;;;;;;;;;10.00;8.00;;;;;18.73;85.34;101341.66;5007259;28;45395;-84
2023/07/22 05:15:10;;;;;;;;;12.33;8.00;;;;;18.72;85.63;101331.88;5037611;28;45381;-85
2023/07/22 05:17:36;;;;;;;;;9.00;7.00;;;;;18.78;85.24;101335.31;5141610;22;46084;-84
2023/07/22 05:20:01;;;;;;;;;6.00;6.00;;;;;18.77;85.20;101330.88;5036383;28;56347;-85
2023/07/22 05:22:26;;;;;;;;;6.33;6.33;;;;;18.77;85.41;101327.34;5026782;28;57465;-84
2023/07/22 05:24:52;;;;;;;;;10.00;7.33;;;;;18.78;85.55;101327.31;5028090;28;45269;-84
2023/07/22 05:27:17;;;;;;;;;6.33;4.67;;;;;18.82;85.99;101333.50;5027011;28;59833;-84
2023/07/22 05:29:43;;;;;;;;;10.67;9.67;;;;;18.82;85.74;101328.16;5030873;28;47480;-84
2023/07/22 05:32:08;;;;;;;;;8.00;8.00;;;;;18.86;85.99;101331.69;5029326;28;46215;-84
2023/07/22 05:34:34;;;;;;;;;10.00;8.67;;;;;18.89;86.08;101337.84;5037252;28;48104;-84
2023/07/22 05:36:59;;;;;;;;;8.00;8.00;;;;;18.90;85.75;101331.56;5037745;28;45515;-84
2023/07/22 05:39:25;;;;;;;;;8.00;6.67;;;;;18.94;85.92;101327.06;5006121;28;54297;-84
2023/07/22 05:41:50;;;;;;;;;8.33;7.00;;;;;18.94;85.36;101327.06;5033563;28;45425;-84
2023/07/22 05:44:16;;;;;;;;;13.00;8.33;;;;;18.96;85.54;101330.59;5037952;28;45348;-84
2023/07/22 05:46:41;;;;;;;;;12.33;8.00;;;;;18.98;85.51;101320.78;5032538;28;45514;-84
2023/07/22 05:49:07;;;;;;;;;7.00;7.00;;;;;18.98;85.85;101321.66;5007690;28;47497;-84
2023/07/22 05:51:32;;;;;;;;;10.33;7.67;;;;;19.01;85.40;101324.25;5030014;28;45234;-84
2023/07/22 05:53:57;;;;;;;;;8.00;6.67;;;;;19.06;86.12;101325.06;5030009;28;52162;-84
2023/07/22 05:56:23;;;;;;;;;8.67;8.00;;;;;19.10;85.94;101326.78;5034767;28;62995;-84
2023/07/22 05:58:48;;;;;;;;;11.00;8.33;;;;;19.14;85.50;101327.63;5023524;28;55389;-84
2023/07/22 06:01:14;;;;;;;;;6.33;4.67;;;;;19.19;85.79;101327.56;5024998;28;60731;-84
2023/07/22 06:03:40;;;;;;;;;10.67;8.00;;;;;19.20;86.02;101330.22;5035279;28;45321;-83
2023/07/22 06:06:05;;;;;;;;;7.00;7.00;;;;;19.22;85.85;101328.38;5035135;28;45381;-85
2023/07/22 06:08:31;;;;;;;;;6.33;6.33;;;;;19.21;86.08;101329.28;5018526;28;65770;-84
2023/07/22 06:10:56;;;;;;;;;8.00;8.00;;;;;19.23;86.02;101322.16;5030604;28;60521;-84
2023/07/22 06:13:22;;;;;;;;;13.33;10.33;;;;;19.27;86.53;101342.56;5037334;28;57211;-84
2023/07/22 06:15:47;;;;;;;;;10.00;7.00;;;;;19.27;86.63;101334.53;5040890;28;48617;-84
2023/07/22 06:18:13;;;;;;;;;7.33;7.33;;;;;19.30;86.66;101337.19;5033176;28;45948;-87
2023/07/22 06:20:38;;;;;;;;;12.33;8.67;;;;;19.31;87.08;101341.63;5029977;28;45480;-84
2023/07/22 06:23:04;;;;;;;;;10.33;8.33;;;;;19.29;88.25;101342.56;5036989;28;45430;-84
2023/07/22 06:25:29;;;;;;;;;10.67;7.67;;;;;19.27;89.15;101341.69;5045461;28;45554;-84
2023/07/22 06:27:55;;;;;;;;;7.00;7.00;;;;;19.29;89.54;101340.78;5030399;28;45464;-84
2023/07/22 06:30:20;;;;;;;;;7.00;6.33;;;;;19.34;90.70;101338.91;5031902;28;45451;-85
2023/07/22 06:32:46;;;;;;;;;10.67;9.00;;;;;19.38;91.67;101332.56;5036402;28;45708;-84
2023/07/22 06:35:11;;;;;;;;;9.33;9.00;;;;;19.41;92.16;101328.97;5025760;28;54694;-84
2023/07/22 06:37:37;;;;;;;;;8.00;8.00;;;;;19.49;92.49;101337.72;5037267;28;46992;-83
2023/07/22 06:40:03;;;;;;;;;11.00;7.33;;;;;19.53;93.33;101333.22;5033556;28;45421;-84
2023/07/22 06:42:29;;;;;;;;;9.00;9.00;;;;;19.61;93.99;101331.31;5025968;28;45369;-85
2023/07/22 06:44:54;;;;;;;;;6.33;6.00;;;;;19.68;94.04;101341.00;5037325;28;45323;-83
2023/07/22 06:47:20;;;;;;;;;9.00;8.00;;;;;19.71;94.51;101329.34;5036295;28;47658;-85
2023/07/22 06:49:45;;;;;;;;;7.67;7.67;;;;;19.76;95.67;101338.16;5035577;28;58960;-86
2023/07/22 06:52:11;;;;;;;;;9.00;9.00;;;;;19.79;95.98;101330.97;5030072;28;45277;-84
2023/07/22 06:54:36;;;;;;;;;7.33;7.33;;;;;19.82;95.79;101322.00;5029627;28;45254;-85
2023/07/22 06:57:02;;;;;;;;;11.33;5.33;;;;;19.87;96.95;101322.81;5006269;28;47775;-86
2023/07/22 06:59:27;;;;;;;;;14.00;10.00;;;;;19.91;97.18;101324.47;5029227;28;45411;-84
2023/07/22 07:01:52;;;;;;;;;8.00;7.00;;;;;19.97;97.35;101334.19;5032729;28;45390;-84
2023/07/22 07:04:18;;;;;;;;;8.00;6.00;;;;;20.04;98.42;101336.75;5029418;28;55734;-84
2023/07/22 07:06:45;;;;;;;;;10.00;5.33;;;;;20.04;98.97;101322.47;5036255;28;46951;-83
2023/07/22 07:09:11;;;;;;;;;6.67;6.00;;;;;20.09;100.00;101333.97;5036647;28;45308;-83
2023/07/22 07:11:36;;;;;;;;;9.67;9.67;;;;;20.10;99.57;101325.88;5017111;28;45292;-85
2023/07/22 07:14:01;;;;;;;;;5.67;5.67;;;;;20.15;99.58;101326.69;5028700;28;60127;-85
2023/07/22 07:16:31;;;;;;;;;10.33;7.67;;;;;20.20;99.64;101331.94;5019381;28;47610;-84
2023/07/22 07:18:56;;;;;;;;;9.67;8.00;;;;;20.26;99.62;101330.94;5028724;28;45538;-84
2023/07/22 07:21:22;;;;;;;;;4.67;4.67;;;;;20.31;99.35;101337.97;5028725;28;45401;-84
2023/07/22 07:23:48;;;;;;;;;7.67;6.00;;;;;20.34;98.95;101321.78;5032022;28;45343;-84
2023/07/22 07:26:14;;;;;;;;;11.00;5.33;;;;;20.38;98.47;101336.91;5028823;28;46171;-83
2023/07/22 07:28:39;;;;;;;;;6.67;5.67;;;;;20.44;98.89;101329.66;5036675;28;45328;-86
2023/07/22 07:31:05;;;;;;;;;7.67;7.33;;;;;20.45;98.73;101347.50;5027496;28;45659;-86
2023/07/22 07:33:30;;;;;;;;;11.67;6.33;;;;;20.44;98.23;101345.75;5025923;28;45803;-86
2023/07/22 07:35:56;;;;;;;;;11.33;6.67;;;;;20.35;98.59;101339.69;5021683;28;47704;-85
2023/07/22 07:38:21;;;;;;;;;8.33;7.00;;;;;20.29;98.31;101339.78;5024971;28;45445;-84
2023/07/22 07:40:46;;;;;;;;;8.00;6.33;;;;;20.25;98.21;101346.16;5032746;28;62405;-86
2023/07/22 07:43:11;;;;;;;;;9.33;7.67;;;;;20.25;98.34;101350.63;5042089;28;59220;-84
2023/07/22 07:45:38;;;;;;;;;9.33;7.67;;;;;20.25;98.16;101345.28;5033879;28;68892;-84
2023/07/22 07:48:05;;;;;;;;;5.67;5.67;;;;;20.27;98.36;101347.00;5024010;28;45460;-83
2023/07/22 07:50:30;;;;;;;;;6.67;6.00;;;;;20.31;97.98;101353.19;5035872;28;45459;-83
2023/07/22 07:52:55;;;;;;;;;8.00;8.00;;;;;20.31;97.82;101353.19;5035873;28;58795;-80
2023/07/22 07:55:21;;;;;;;;;7.33;7.33;;;;;20.34;98.25;101345.06;5028656;28;66041;-84
2023/07/22 07:57:46;;;;;;;;;5.00;5.00;;;;;20.37;97.46;101340.53;5011459;28;68168;-83
2023/07/22 08:00:12;;;;;;;;;11.00;8.33;;;;;20.41;97.32;101344.03;5029796;28;45273;-84
2023/07/22 08:02:37;;;;;;;;;8.33;5.33;;;;;20.45;97.70;101334.09;5024646;28;45485;-83
2023/07/22 08:05:03;;;;;;;;;7.00;6.33;;;;;20.51;97.05;101337.59;5032807;28;67365;-84
2023/07/22 08:07:28;;;;;;;;;5.00;4.33;;;;;20.57;96.54;101331.19;5033078;28;45551;-84
2023/07/22 08:09:53;;;;;;;;;6.67;6.67;;;;;20.64;96.69;101328.31;5035399;28;59287;-84
2023/07/22 08:12:19;;;;;;;;;11.00;6.33;;;;;20.73;96.26;101326.38;5034877;28;45665;-82
2023/07/22 08:14:44;;;;;;;;;6.33;6.33;;;;;20.82;95.99;101316.28;5033049;28;65597;-84
2023/07/22 08:17:10;;;;;;;;;5.67;5.67;;;;;20.97;96.30;101330.25;5035563;28;45773;-84
2023/07/22 08:19:35;;;;;;;;;7.00;7.00;;;;;21.10;95.07;101331.75;5026039;28;45553;-84
2023/07/22 08:22:00;;;;;;;;;8.00;6.00;;;;;21.14;94.60;101328.91;5020389;28;59303;-84
2023/07/22 08:24:26;;;;;;;;;8.67;7.67;;;;;21.22;93.93;101336.81;5022032;28;71051;-84
2023/07/22 08:26:51;;;;;;;;;8.00;7.00;;;;;21.23;93.61;101327.81;5032466;28;53636;-84
2023/07/22 08:29:16;;;;;;;;;6.33;4.67;;;;;21.26;93.36;101330.44;5008423;28;45294;-85
2023/07/22 08:31:42;;;;;;;;;6.00;6.00;;;;;21.26;92.86;101332.25;5036331;28;61777;-85
2023/07/22 08:34:08;;;;;;;;;7.67;5.00;;;;;21.24;92.53;101324.19;5031884;28;68396;-83
2023/07/22 08:36:33;;;;;;;;;8.00;5.67;;;;;21.23;92.18;101332.31;5017797;28;45656;-85
2023/07/22 08:38:58;;;;;;;;;8.33;6.00;;;;;21.16;91.51;101327.09;5029756;28;56191;-85
2023/07/22 08:41:25;;;;;;;;;7.00;7.00;;;;;21.07;91.20;101330.00;5033067;28;48494;-83
2023/07/22 08:43:51;;;;;;;;;4.33;4.33;;;;;21.01;91.15;101324.78;5032370;28;46746;-84
2023/07/22 08:46:19;;;;;;;;;6.00;6.00;;;;;21.02;91.26;101322.97;5026859;28;45384;-84
2023/07/22 08:48:46;;;;;;;;;5.67;5.33;;;;;21.01;90.32;101319.41;5032582;28;45404;-84
2023/07/22 08:51:18;;;;;;;;;5.67;4.00;;;;;21.05;90.74;101323.78;5022677;28;45424;-84
2023/07/22 08:53:47;;;;;;;;;5.00;4.00;;;;;21.09;90.55;101314.75;5018417;28;46278;-84
2023/07/22 08:56:13;;;;;;;;;7.00;6.00;;;;;21.12;89.98;101316.47;5031478;28;45350;-84
2023/07/22 08:58:39;;;;;;;;;4.33;4.33;;;;;21.14;90.07;101311.94;5016821;28;62451;-83
2023/07/22 09:01:05;;;;;;;;;7.00;5.33;;;;;21.21;90.10;101312.69;5017419;28;45332;-84
2023/07/22 09:03:31;;;;;;;;;7.00;6.00;;;;;21.25;89.12;101317.03;5020393;28;45315;-83
2023/07/22 09:05:56;;;;;;;;;6.00;5.00;;;;;21.31;88.94;101314.25;5013727;28;46161;-84
2023/07/22 09:08:21;;;;;;;;;6.00;4.00;;;;;21.35;88.56;101310.53;5029743;28;64249;-84
2023/07/22 09:10:48;;;;;;;;;8.00;5.00;;;;;21.45;88.60;101310.25;5033063;28;45606;-85
2023/07/22 09:13:14;;;;;;;;;5.00;5.00;;;;;21.52;87.68;101313.69;5024577;28;45480;-84
2023/07/22 09:15:39;;;;;;;;;2.33;2.33;;;;;21.56;85.85;101303.72;5034986;28;45526;-86
2023/07/22 09:18:05;;;;;;;;;4.67;4.67;;;;;21.59;85.82;101304.53;5031563;28;45354;-86
2023/07/22 09:20:31;;;;;;;;;3.00;3.00;;;;;21.64;83.26;101299.91;5029599;28;45379;-83
2023/07/22 09:22:56;;;;;;;;;4.33;4.33;;;;;21.66;82.56;101303.41;5028944;28;45573;-83
2023/07/22 09:25:23;;;;;;;;;5.00;3.67;;;;;21.68;82.23;101301.59;5038492;28;45200;-85
2023/07/22 09:27:50;;;;;;;;;6.00;3.00;;;;;21.68;82.52;101296.22;5029702;28;45348;-84
2023/07/22 09:30:32;;;;;;;;;4.33;4.33;;;;;21.77;82.53;101297.75;5029208;28;45399;-86
2023/07/22 09:33:00;;;;;;;;;5.00;3.33;;;;;21.81;82.56;101295.88;5023867;28;46365;-82
2023/07/22 09:35:49;;;;;;;;;5.00;5.00;;;;;21.89;82.63;101293.81;5023300;28;45335;-84
2023/07/22 09:38:22;;;;;;;;;6.00;4.67;;;;;21.93;82.24;101284.75;5028810;28;45519;-85
2023/07/22 09:40:47;;;;;;;;;4.33;4.33;;;;;22.00;81.83;101288.13;5019553;28;45472;-83
2023/07/22 09:43:13;;;;;;;;;6.00;4.33;;;;;22.04;82.09;101282.63;5031861;28;64404;-84
2023/07/22 09:45:38;;;;;;;;;5.33;3.00;;;;;22.10;81.55;101279.78;5017867;28;45355;-84
2023/07/22 09:48:05;;;;;;;;;3.00;3.00;;;;;22.19;81.54;101273.25;5024590;28;45486;-84
2023/07/22 09:50:31;;;;;;;;;4.67;4.67;;;;;22.20;80.76;101269.63;5031886;28;45484;-84
2023/07/22 09:53:03;;;;;;;;;3.00;3.00;;;;;22.33;80.08;101276.44;5030739;28;45376;-86
2023/07/22 09:55:31;;;;;;;;;4.33;2.00;;;;;22.45;79.81;101275.16;5037988;28;45309;-84
2023/07/22 09:57:59;;;;;;;;;2.00;2.00;;;;;22.51;78.53;101274.97;5024426;28;45332;-84
2023/07/22 10:00:27;;;;;;;;;3.00;3.00;;;;;22.59;78.01;101274.75;5038124;28;45521;-83
2023/07/22 10:02:56;;;;;;;;;5.33;3.67;;;;;22.81;78.42;101273.13;5027367;28;47146;-84
2023/07/22 10:05:22;;;;;;;;;4.67;4.67;;;;;23.01;77.47;101272.50;5020079;28;45323;-84
2023/07/22 10:07:52;;;;;;;;;3.33;3.33;;;;;23.25;77.02;101277.03;5018951;28;45403;-86
2023/07/22 10:10:19;;;;;;;;;5.00;4.33;;;;;23.41;76.42;101277.38;5000716;28;45512;-84
2023/07/22 10:12:45;;;;;;;;;5.00;5.00;;;;;23.50;75.54;101281.56;5030109;28;47638;-84
2023/07/22 10:15:13;;;;;;;;;9.67;6.67;;;;;23.53;75.36;101265.28;5034355;28;45408;-84
2023/07/22 10:17:40;;;;;;;;;8.00;7.67;;;;;23.67;75.68;101270.22;5020330;28;45155;-84
2023/07/22 10:20:07;;;;;;;;;10.00;9.00;;;;;23.78;75.73;101271.56;5032407;28;45502;-84
2023/07/22 10:22:37;;;;;;;;;3.67;3.67;;;;;23.91;74.21;101263.91;5002988;28;48400;-84
2023/07/22 10:25:09;;;;;;;;;4.00;4.00;;;;;24.02;74.07;101267.09;5023849;28;45353;-84
2023/07/22 10:27:35;;;;;;;;;6.00;5.00;;;;;24.08;74.30;101268.69;5022688;28;45426;-83
2023/07/22 10:30:02;;;;;;;;;4.33;4.33;;;;;24.05;73.55;101258.00;5034844;28;45301;-84
2023/07/22 10:32:39;;;;;;;;;4.67;4.67;;;;;24.07;73.74;101260.63;5021460;28;46391;-84
2023/07/22 10:35:10;;;;;;;;;3.33;3.33;;;;;24.14;73.25;101263.03;5030054;28;45666;-86
2023/07/22 10:37:36;;;;;;;;;4.00;4.00;;;;;24.19;73.60;101255.66;5032774;28;45380;-84
2023/07/22 10:40:24;;;;;;;;;4.00;4.00;;;;;24.37;72.10;101266.69;5027313;28;45582;-82
2023/07/22 10:42:53;;;;;;;;;4.00;4.00;;;;;24.54;72.29;101258.78;5023971;28;46293;-82
2023/07/22 10:45:27;;;;;;;;;4.00;4.00;;;;;24.67;71.08;101251.09;5037247;28;45474;-84
2023/07/22 10:48:07;;;;;;;;;5.00;3.67;;;;;24.81;70.40;101245.97;5029419;28;45534;-83
2023/07/22 10:50:48;;;;;;;;;3.00;3.00;;;;;24.93;69.38;101240.09;5023464;28;45647;-84
2023/07/22 10:53:29;;;;;;;;;3.67;3.67;;;;;25.04;68.08;101254.03;5026678;28;45718;-84
2023/07/22 10:56:04;;;;;;;;;4.00;4.00;;;;;25.14;66.77;101232.00;5015092;28;45761;-85
2023/07/22 10:58:45;;;;;;;;;5.00;3.00;;;;;25.27;66.81;101238.66;5023528;28;45455;-84
2023/07/22 11:01:28;;;;;;;;;2.00;2.00;;;;;25.44;65.13;101240.63;5035012;28;45306;-85
2023/07/22 11:04:10;;;;;;;;;2.67;2.00;;;;;25.55;61.43;101233.78;5020528;28;47033;-83
2023/07/22 11:06:43;;;;;;;;;2.67;2.67;;;;;25.56;60.83;101231.94;5019560;28;45450;-84
2023/07/22 11:09:30;;;;;;;;;2.33;2.33;;;;;25.55;59.51;101232.91;5029804;28;45180;-83
2023/07/22 11:12:20;;;;;;;;;1.00;1.00;;;;;25.66;58.76;101227.00;5035529;28;45501;-81
2023/07/22 11:15:05;;;;;;;;;1.67;1.67;;;;;25.78;59.71;101223.75;5033069;28;48827;-82
2023/07/22 11:17:31;;;;;;;;;2.33;2.00;;;;;25.87;57.66;101220.66;5031553;28;45359;-84
2023/07/22 11:19:57;;;;;;;;;4.00;3.00;;;;;25.93;57.27;101214.94;5023644;28;45388;-82
2023/07/22 11:22:22;;;;;;;;;2.00;2.00;;;;;25.96;56.75;101216.66;5032897;28;45622;-83